createdAt,value
2022-08-28T00:01:01.781Z,69.40
2022-08-28T00:04:43.730Z,69.70
2022-08-28T00:08:26.053Z,69.70
2022-08-28T00:12:08.080Z,69.80
2022-08-28T00:15:55.838Z,70.20
2022-08-28T00:19:38.859Z,73.20
2022-08-28T00:23:21.143Z,70.90
2022-08-28T00:27:21.764Z,71.00
2022-08-28T00:31:05.150Z,71.00
2022-08-28T00:34:47.025Z,70.80
2022-08-28T00:38:29.148Z,70.80
2022-08-28T00:42:10.958Z,71.00
2022-08-28T00:45:53.372Z,71.00
2022-08-28T00:49:36.164Z,71.20
2022-08-28T00:53:18.545Z,71.70
2022-08-28T00:57:02.277Z,71.70
2022-08-28T01:00:44.340Z,72.20
2022-08-28T01:04:27.549Z,72.30
2022-08-28T01:08:09.348Z,72.80
2022-08-28T01:11:55.832Z,73.70
2022-08-28T01:15:37.697Z,73.80
2022-08-28T01:19:29.428Z,74.20
2022-08-28T01:23:25.174Z,76.30
2022-08-28T01:27:06.971Z,80.10
2022-08-28T01:30:49.449Z,76.50
2022-08-28T01:34:31.762Z,76.40
2022-08-28T01:38:19.611Z,76.80
2022-08-28T01:42:04.600Z,76.80
2022-08-28T01:45:52.913Z,77.20
2022-08-28T01:49:34.749Z,79.50
2022-08-28T01:53:17.990Z,79.10
2022-08-28T01:57:01.004Z,79.80
2022-08-28T02:00:42.871Z,79.00
2022-08-28T02:04:31.948Z,79.20
2022-08-28T02:08:14.526Z,79.40
2022-08-28T02:11:57.380Z,79.60
2022-08-28T02:15:39.699Z,80.00
2022-08-28T02:19:21.543Z,80.50
2022-08-28T02:23:03.410Z,80.80
2022-08-28T02:26:45.212Z,81.10
2022-08-28T02:30:27.265Z,81.60
2022-08-28T02:34:11.088Z,82.20
2022-08-28T02:37:54.565Z,82.50
2022-08-28T02:41:37.445Z,82.80
2022-08-28T02:45:19.482Z,83.30
2022-08-28T02:49:01.249Z,83.90
2022-08-28T02:52:43.681Z,84.20
2022-08-28T02:56:25.436Z,84.40
2022-08-28T03:00:14.710Z,84.60
2022-08-28T03:03:56.498Z,88.10
2022-08-28T03:07:38.313Z,85.50
2022-08-28T03:11:20.077Z,85.70
2022-08-28T03:15:02.026Z,86.50
2022-08-28T03:18:43.827Z,86.20
2022-08-28T03:22:44.070Z,86.30
2022-08-28T03:26:25.882Z,86.60
2022-08-28T03:30:08.502Z,86.70
2022-08-28T03:33:50.614Z,87.40
2022-08-28T03:37:32.423Z,87.50
2022-08-28T03:41:16.026Z,87.60
2022-08-28T03:44:58.124Z,88.40
2022-08-28T03:48:41.037Z,88.20
2022-08-28T03:52:26.680Z,88.10
2022-08-28T03:56:13.688Z,88.30
2022-08-28T03:59:55.477Z,90.40
2022-08-28T04:03:37.342Z,88.60
2022-08-28T04:07:19.322Z,89.00
2022-08-28T04:11:01.110Z,89.30
2022-08-28T04:14:43.096Z,89.40
2022-08-28T04:18:24.828Z,89.70
2022-08-28T04:22:08.313Z,89.80
2022-08-28T04:25:50.097Z,89.90
2022-08-28T04:29:32.114Z,90.00
2022-08-28T04:33:13.926Z,90.00
2022-08-28T04:36:55.775Z,90.10
2022-08-28T04:40:40.945Z,90.10
2022-08-28T04:44:22.900Z,91.00
2022-08-28T04:48:05.389Z,90.10
2022-08-28T04:51:52.392Z,90.20
2022-08-28T04:55:54.600Z,90.30
2022-08-28T04:59:36.116Z,90.30
2022-08-28T05:03:18.005Z,90.40
2022-08-28T05:06:59.984Z,90.50
2022-08-28T05:10:42.325Z,90.60
2022-08-28T05:14:24.124Z,90.60
2022-08-28T05:18:06.364Z,90.70
2022-08-28T05:21:48.859Z,90.80
2022-08-28T05:25:32.913Z,90.90
2022-08-28T05:29:14.724Z,91.00
2022-08-28T05:32:56.556Z,91.00
2022-08-28T05:36:38.721Z,91.10
2022-08-28T05:40:22.307Z,91.30
2022-08-28T05:44:09.970Z,91.40
2022-08-28T05:47:52.144Z,92.80
2022-08-28T05:51:35.056Z,91.50
2022-08-28T05:55:16.906Z,91.50
2022-08-28T05:59:00.150Z,91.50
2022-08-28T06:02:42.128Z,91.80
2022-08-28T06:06:24.670Z,91.40
2022-08-28T06:10:07.474Z,91.40
2022-08-28T06:13:52.619Z,91.10
2022-08-28T06:17:35.038Z,90.90
2022-08-28T06:21:16.834Z,90.80
2022-08-28T06:25:03.091Z,90.90
2022-08-28T06:28:46.581Z,90.50
2022-08-28T06:32:28.383Z,90.30
2022-08-28T06:36:11.314Z,90.20
2022-08-28T06:39:53.116Z,90.00
2022-08-28T06:43:35.033Z,89.80
2022-08-28T06:47:16.791Z,89.80
2022-08-28T06:50:59.187Z,89.40
2022-08-28T06:54:40.995Z,88.80
2022-08-28T06:58:40.728Z,88.20
2022-08-28T07:02:22.724Z,87.70
2022-08-28T07:06:10.958Z,87.00
2022-08-28T07:09:52.723Z,86.70
2022-08-28T07:13:34.493Z,85.90
2022-08-28T07:17:16.258Z,85.50
2022-08-28T07:20:58.860Z,85.10
2022-08-28T07:24:40.715Z,84.90
2022-08-28T07:28:22.578Z,84.80
2022-08-28T07:32:04.782Z,84.60
2022-08-28T07:35:47.110Z,84.30
2022-08-28T07:39:28.897Z,83.20
2022-08-28T07:43:29.214Z,82.20
2022-08-28T07:47:11.855Z,81.30
2022-08-28T07:50:53.709Z,80.10
2022-08-28T07:54:36.112Z,79.10
2022-08-28T07:58:19.381Z,78.10
2022-08-28T08:02:01.177Z,76.60
2022-08-28T08:05:54.041Z,76.00
2022-08-28T08:09:40.311Z,73.00
2022-08-28T08:13:22.143Z,72.10
2022-08-28T08:17:04.821Z,73.80
2022-08-28T08:20:49.334Z,73.10
2022-08-28T08:24:31.149Z,71.90
2022-08-28T08:28:13.079Z,70.40
2022-08-28T08:32:02.673Z,68.60
2022-08-28T08:35:44.478Z,66.10
2022-08-28T08:39:26.466Z,63.60
2022-08-28T08:43:08.226Z,61.70
2022-08-28T08:47:14.032Z,60.00
2022-08-28T08:51:21.406Z,55.40
2022-08-28T08:55:18.218Z,56.20
2022-08-28T08:59:01.399Z,53.80
2022-08-28T09:03:27.892Z,55.00
2022-08-28T09:07:19.798Z,52.00
2022-08-28T09:11:27.693Z,51.70
2022-08-28T09:15:12.437Z,51.80
2022-08-28T09:18:56.396Z,54.00
2022-08-28T09:22:40.136Z,54.00
2022-08-28T09:26:23.502Z,53.00
2022-08-28T09:30:10.443Z,51.60
2022-08-28T09:33:52.384Z,50.40
2022-08-28T09:37:34.871Z,49.00
2022-08-28T09:41:34.804Z,48.80
2022-08-28T09:45:20.984Z,48.30
2022-08-28T09:49:13.500Z,47.50
2022-08-28T09:52:57.943Z,45.20
2022-08-28T09:56:42.706Z,46.00
2022-08-28T10:00:24.495Z,44.10
2022-08-28T10:04:31.340Z,44.30
2022-08-28T10:08:27.808Z,42.50
2022-08-28T10:12:18.428Z,41.90
2022-08-28T10:16:23.586Z,41.10
2022-08-28T10:20:10.363Z,40.70
2022-08-28T10:24:26.342Z,39.30
2022-08-28T10:28:37.193Z,38.40
2022-08-28T10:32:34.199Z,40.30
2022-08-28T10:36:33.619Z,39.90
2022-08-28T10:40:29.790Z,37.80
2022-08-28T10:44:13.720Z,34.00
2022-08-28T10:48:18.485Z,36.80
2022-08-28T10:52:19.764Z,34.60
2022-08-28T10:56:15.953Z,35.10
2022-08-28T10:59:58.295Z,37.00
2022-08-28T11:03:43.146Z,36.10
2022-08-28T11:07:47.215Z,35.70
2022-08-28T11:11:48.878Z,35.10
2022-08-28T11:15:36.687Z,33.90
2022-08-28T11:19:44.135Z,34.90
2022-08-28T11:23:44.554Z,33.10
2022-08-28T11:27:33.153Z,31.10
2022-08-28T11:31:19.015Z,31.10
2022-08-28T11:35:30.270Z,31.50
2022-08-28T11:39:15.024Z,30.40
2022-08-28T11:43:16.261Z,29.80
2022-08-28T11:47:37.289Z,30.40
2022-08-28T11:51:19.070Z,30.30
2022-08-28T11:55:25.753Z,30.50
2022-08-28T11:59:12.853Z,29.70
2022-08-28T12:03:06.905Z,30.10
2022-08-28T12:06:54.434Z,28.60
2022-08-28T12:10:39.741Z,29.00
2022-08-28T12:14:27.832Z,28.30
2022-08-28T12:18:12.619Z,28.10
2022-08-28T12:21:54.479Z,27.90
2022-08-28T12:25:41.951Z,28.70
2022-08-28T12:29:35.366Z,27.20
2022-08-28T12:33:25.912Z,27.00
2022-08-28T12:37:22.465Z,26.40
2022-08-28T12:41:04.222Z,26.20
2022-08-28T12:44:46.361Z,27.10
2022-08-28T12:48:35.087Z,27.60
2022-08-28T12:52:22.375Z,27.10
2022-08-28T12:56:04.214Z,27.50
2022-08-28T12:59:53.939Z,27.90
2022-08-28T13:03:52.106Z,27.60
2022-08-28T13:07:45.569Z,27.50
2022-08-28T13:11:32.198Z,27.60
